Time;durP1;ratioP1;P1;durP2;ratioP2;P2;SDS_P1;SDS_P2;PMS_P1;PMS_P2;Temp;Humidity;BMP_temperature;BMP_pressure;BME280_temperature;BME280_humidity;BME280_pressure;Samples;Min_cycle;Max_cycle;Signal;HPM_P1;HPM_P2
2022/09/25 00:00:17;;;;;;;50.30;24.47;;;;;;;11.86;100.00;100778.78;7386362;19;20408;-56
2022/09/25 00:02:47;;;;;;;51.93;24.00;;;;;;;11.92;100.00;100772.94;7392084;19;20390;-54
2022/09/25 00:05:16;;;;;;;45.43;23.50;;;;;;;11.89;100.00;100769.41;7382626;19;20420;-56
2022/09/25 00:07:48;;;;;;;51.67;24.10;;;;;;;11.88;100.00;100774.53;7389370;19;20412;-55
2022/09/25 00:10:18;;;;;;;43.70;21.00;;;;;;;11.92;100.00;100783.28;7380551;19;20413;-52
2022/09/25 00:12:47;;;;;;;42.20;21.37;;;;;;;11.87;100.00;100776.25;7387750;19;20398;-51
2022/09/25 00:15:17;;;;;;;42.13;21.40;;;;;;;11.88;100.00;100779.69;7381826;19;20440;-55
2022/09/25 00:17:46;;;;;;;45.83;20.70;;;;;;;11.86;100.00;100774.47;7386776;19;20378;-53
2022/09/25 00:20:16;;;;;;;46.20;20.90;;;;;;;11.81;100.00;100776.03;7380200;19;20413;-58
2022/09/25 00:22:45;;;;;;;47.97;20.90;;;;;;;11.72;100.00;100784.31;7387410;19;20382;-58
2022/09/25 00:25:19;;;;;;;46.77;21.33;;;;;;;11.83;100.00;100779.53;7384796;19;20421;-55
2022/09/25 00:27:49;;;;;;;42.63;21.07;;;;;;;11.68;100.00;100779.84;7386578;19;20920;-55
2022/09/25 00:30:18;;;;;;;46.83;22.90;;;;;;;11.74;100.00;100774.91;7380427;19;21138;-54
2022/09/25 00:32:48;;;;;;;45.97;20.97;;;;;;;11.78;100.00;100775.03;7388777;19;20409;-51
2022/09/25 00:35:17;;;;;;;57.83;22.40;;;;;;;11.79;100.00;100772.47;7382329;19;20427;-52
2022/09/25 00:37:46;;;;;;;44.13;22.03;;;;;;;11.68;100.00;100769.50;7388893;19;20413;-53
2022/09/25 00:40:19;;;;;;;44.43;20.10;;;;;;;11.68;100.00;100773.78;7382723;19;20445;-59
2022/09/25 00:42:48;;;;;;;47.00;20.30;;;;;;;11.80;100.00;100778.53;7390369;19;20643;-57
2022/09/25 00:45:20;;;;;;;61.70;21.97;;;;;;;11.71;100.00;100774.81;7384078;19;20939;-56
2022/09/25 00:47:57;;;;;;;59.13;21.90;;;;;;;11.70;100.00;100779.91;7389317;19;20433;-54
2022/09/25 00:50:34;;;;;;;58.30;22.43;;;;;;;11.56;100.00;100776.78;7384537;19;20409;-54
2022/09/25 00:53:08;;;;;;;50.63;21.67;;;;;;;11.64;100.00;100780.53;7390494;19;20394;-56
2022/09/25 00:55:41;;;;;;;50.80;21.63;;;;;;;11.71;100.00;100779.97;7384930;19;20401;-55
2022/09/25 00:58:10;;;;;;;55.40;21.70;;;;;;;11.65;100.00;100773.69;7390128;19;20401;-53
2022/09/25 01:00:40;;;;;;;47.53;20.80;;;;;;;11.77;100.00;100783.59;7384305;19;20513;-55
2022/09/25 01:03:10;;;;;;;60.27;22.80;;;;;;;11.78;100.00;100781.06;7390728;19;20384;-55
2022/09/25 01:05:43;;;;;;;48.93;23.00;;;;;;;11.79;100.00;100782.81;7384289;19;20413;-53
2022/09/25 01:08:16;;;;;;;54.60;23.80;;;;;;;11.62;100.00;100777.03;7390437;19;20752;-58
2022/09/25 01:10:48;;;;;;;51.90;22.73;;;;;;;11.60;100.00;100782.13;7384551;19;20425;-54
2022/09/25 01:13:18;;;;;;;51.83;21.53;;;;;;;11.71;100.00;100785.13;7390440;19;20773;-55
2022/09/25 01:15:51;;;;;;;49.20;22.43;;;;;;;11.60;100.00;100786.44;7385916;19;20409;-56
2022/09/25 01:18:31;;;;;;;50.37;22.83;;;;;;;11.60;100.00;100781.25;7396706;19;20427;-54
2022/09/25 01:21:15;;;;;;;57.33;24.00;;;;;;;11.57;100.00;100787.19;7391838;19;20402;-55
2022/09/25 01:24:14;;;;;;;62.90;24.93;;;;;;;11.56;100.00;100788.03;7398831;19;20766;-52
2022/09/25 01:27:04;;;;;;;63.43;26.47;;;;;;;11.50;100.00;100784.31;7390021;19;20976;-56
2022/09/25 01:29:38;;;;;;;51.67;23.10;;;;;;;11.47;100.00;100785.97;7395555;19;20442;-54
2022/09/25 01:32:12;;;;;;;69.60;24.97;;;;;;;11.44;100.00;100787.53;7390883;19;20429;-55
2022/09/25 01:34:47;;;;;;;46.53;22.17;;;;;;;11.54;100.00;100786.19;7395598;19;20935;-56
2022/09/25 01:37:21;;;;;;;50.97;23.20;;;;;;;11.64;100.00;100792.59;7391761;19;20955;-55
2022/09/25 01:39:57;;;;;;;52.60;24.23;;;;;;;11.68;100.00;100786.69;7394518;19;20978;-57
2022/09/25 01:42:29;;;;;;;53.97;24.63;;;;;;;11.71;100.00;100789.41;7397381;19;20418;-56
2022/09/25 01:45:06;;;;;;;55.93;23.90;;;;;;;11.60;100.00;100781.25;7387743;19;20958;-55
2022/09/25 01:47:38;;;;;;;63.30;24.33;;;;;;;11.67;100.00;100772.91;7397342;19;20406;-56
2022/09/25 01:50:10;;;;;;;53.43;23.97;;;;;;;11.65;100.00;100779.75;7389483;19;20893;-56
2022/09/25 01:52:42;;;;;;;59.93;25.50;;;;;;;11.76;100.00;100787.88;7397357;19;20388;-53
2022/09/25 01:55:15;;;;;;;56.50;23.77;;;;;;;11.62;100.00;100779.59;7390480;19;20382;-55
2022/09/25 01:57:48;;;;;;;59.10;25.90;;;;;;;11.69;100.00;100775.56;7400824;19;20395;-50
2022/09/25 02:00:21;;;;;;;53.77;24.60;;;;;;;11.86;100.00;100778.78;7389627;19;20402;-58
2022/09/25 02:02:56;;;;;;;71.97;26.87;;;;;;;11.72;100.00;100771.38;7397367;19;20384;-58
2022/09/25 02:05:30;;;;;;;61.90;25.13;;;;;;;11.66;100.00;100776.31;7391229;19;20735;-58
2022/09/25 02:08:02;;;;;;;72.50;26.97;;;;;;;11.66;100.00;100786.66;7396876;19;20741;-56
2022/09/25 02:10:35;;;;;;;62.13;25.50;;;;;;;11.62;100.00;100784.78;7391476;19;20409;-52
2022/09/25 02:13:11;;;;;;;78.33;25.43;;;;;;;11.65;100.00;100784.00;7397125;19;20392;-53
2022/09/25 02:15:45;;;;;;;57.40;24.60;;;;;;;11.70;100.00;100788.53;7387985;19;20404;-57
2022/09/25 02:21:03;;;;;;;63.70;27.07;;;;;;;11.69;100.00;100799.69;7390643;19;20409;-52
2022/09/25 02:23:38;;;;;;;51.47;24.30;;;;;;;11.56;100.00;100789.72;7396885;19;20379;-52
2022/09/25 02:26:13;;;;;;;54.10;23.70;;;;;;;11.66;100.00;100790.94;7390128;19;20418;-50
2022/09/25 02:28:43;;;;;;;60.87;25.63;;;;;;;11.75;100.00;100794.75;7395736;19;20893;-55
2022/09/25 02:31:15;;;;;;;58.33;25.27;;;;;;;11.72;100.00;100792.06;7390242;19;20747;-52
2022/09/25 02:33:45;;;;;;;61.70;27.47;;;;;;;11.87;100.00;100796.94;7396080;19;20386;-53
2022/09/25 02:36:18;;;;;;;64.90;26.90;;;;;;;11.79;100.00;100793.16;7389411;19;20410;-55
2022/09/25 02:38:50;;;;;;;63.27;26.10;;;;;;;11.70;100.00;100793.69;7394479;19;20442;-55
2022/09/25 02:41:33;;;;;;;60.83;27.10;;;;;;;11.66;100.00;100785.78;7390079;19;20437;-52
2022/09/25 02:44:08;;;;;;;55.77;24.70;;;;;;;11.60;100.00;100791.59;7395888;19;20892;-55
2022/09/25 02:46:46;;;;;;;60.63;24.47;;;;;;;11.58;100.00;100786.38;7390241;19;20418;-55
2022/09/25 02:49:21;;;;;;;51.30;23.17;;;;;;;11.59;100.00;100790.72;7394446;19;20402;-57
2022/09/25 02:51:56;;;;;;;57.57;25.20;;;;;;;11.51;100.00;100794.72;7390026;19;20974;-55
2022/09/25 02:54:28;;;;;;;47.17;22.10;;;;;;;11.57;100.00;100796.63;7395151;19;20390;-53
2022/09/25 02:57:03;;;;;;;50.20;23.40;;;;;;;11.46;100.00;100789.38;7389511;19;20411;-55
2022/09/25 02:59:36;;;;;;;47.27;22.43;;;;;;;11.52;100.00;100795.56;7393856;19;20410;-57
2022/09/25 03:02:08;;;;;;;48.77;22.33;;;;;;;11.60;100.00;100791.59;7388664;19;20407;-51
2022/09/25 03:04:39;;;;;;;43.77;21.00;;;;;;;11.64;100.00;100787.44;7395110;19;20378;-51
2022/09/25 03:07:09;;;;;;;45.67;21.50;;;;;;;11.61;100.00;100781.31;7389697;19;20405;-53
2022/09/25 03:09:37;;;;;;;39.93;20.23;;;;;;;11.58;100.00;100782.88;7393007;19;20940;-55
2022/09/25 03:12:07;;;;;;;42.27;21.83;;;;;;;11.46;100.00;100779.03;7389309;19;20415;-54
2022/09/25 03:14:36;;;;;;;47.53;23.07;;;;;;;11.38;100.00;100780.41;7394505;19;20410;-54
2022/09/25 03:17:09;;;;;;;49.33;23.50;;;;;;;11.41;100.00;100788.31;7389338;19;20430;-52
2022/09/25 03:19:38;;;;;;;52.47;24.07;;;;;;;11.51;100.00;100786.06;7392774;19;20437;-53
2022/09/25 03:22:08;;;;;;;45.43;22.93;;;;;;;11.48;100.00;100785.13;7388596;19;20444;-55
2022/09/25 03:24:37;;;;;;;47.27;24.90;;;;;;;11.40;100.00;100785.66;7398824;19;20417;-55
2022/09/25 03:27:07;;;;;;;45.33;22.77;;;;;;;11.52;100.00;100787.81;7388626;19;20409;-50
2022/09/25 03:29:36;;;;;;;45.90;24.37;;;;;;;11.47;100.00;100785.06;7392278;19;20442;-52
2022/09/25 03:32:09;;;;;;;53.23;25.13;;;;;;;11.43;100.00;100781.47;7388117;19;20407;-54
2022/09/25 03:34:38;;;;;;;47.50;24.43;;;;;;;11.56;100.00;100784.53;7394414;19;20388;-54
2022/09/25 03:37:07;;;;;;;56.60;25.73;;;;;;;11.51;100.00;100781.78;7388405;19;20937;-54
2022/09/25 03:39:37;;;;;;;53.93;28.07;;;;;;;11.69;100.00;100781.59;7390050;19;20415;-51
2022/09/25 03:42:06;;;;;;;50.40;26.10;;;;;;;11.65;100.00;100782.31;7387916;19;20413;-51
2022/09/25 03:44:36;;;;;;;51.03;26.43;;;;;;;11.57;100.00;100781.13;7393800;19;20395;-50
2022/09/25 03:47:08;;;;;;;54.37;27.70;;;;;;;11.57;100.00;100775.97;7387833;19;20419;-52
2022/09/25 03:49:37;;;;;;;54.33;26.47;;;;;;;11.51;100.00;100776.63;7391799;19;20418;-50
2022/09/25 03:52:08;;;;;;;48.83;26.47;;;;;;;11.46;100.00;100781.63;7387556;19;20767;-53
2022/09/25 03:54:37;;;;;;;54.87;26.00;;;;;;;11.48;100.00;100781.66;7393392;19;20767;-54
2022/09/25 03:57:07;;;;;;;57.63;26.07;;;;;;;11.54;100.00;100781.03;7387205;19;20437;-51
2022/09/25 03:59:36;;;;;;;45.83;26.03;;;;;;;11.61;100.00;100788.19;7391558;19;20422;-52
2022/09/25 04:02:09;;;;;;;58.70;30.80;;;;;;;11.53;100.00;100780.13;7390444;19;20810;-54
2022/09/25 04:04:39;;;;;;;57.03;29.63;;;;;;;11.47;100.00;100780.78;7393512;19;20379;-54
2022/09/25 04:07:09;;;;;;;61.03;29.33;;;;;;;11.40;100.00;100773.63;7387122;19;20444;-54
2022/09/25 04:09:38;;;;;;;54.27;28.77;;;;;;;11.34;100.00;100781.16;7391380;19;20437;-55
2022/09/25 04:12:08;;;;;;;51.43;27.40;;;;;;;11.38;100.00;100787.31;7387274;19;20414;-56
2022/09/25 04:14:37;;;;;;;59.00;29.17;;;;;;;11.36;100.00;100782.06;7392934;19;20418;-53
2022/09/25 04:17:09;;;;;;;53.87;27.27;;;;;;;11.45;100.00;100782.41;7386370;19;20414;-53
2022/09/25 04:19:38;;;;;;;56.43;28.07;;;;;;;11.41;100.00;100779.66;7390852;19;20438;-55
2022/09/25 04:22:08;;;;;;;53.97;27.90;;;;;;;11.35;100.00;100782.91;7385836;19;20442;-50
2022/09/25 04:24:53;;;;;;;66.43;31.47;;;;;;;11.53;100.00;100780.13;7392645;19;20761;-52
2022/09/25 04:27:25;;;;;;;62.00;30.03;;;;;;;11.64;100.00;100772.78;7392550;19;20438;-55
2022/09/25 04:29:54;;;;;;;47.03;25.57;;;;;;;11.78;100.00;100780.19;7391001;19;20463;-57
2022/09/25 04:35:09;;;;;;;57.13;28.23;;;;;;;11.65;100.00;100771.09;7387213;19;20378;-54
2022/09/25 04:37:38;;;;;;;59.83;29.27;;;;;;;11.51;100.00;100768.88;7392254;19;20397;-50
2022/09/25 04:40:10;;;;;;;52.60;27.00;;;;;;;11.56;100.00;100774.22;7384023;19;20412;-56
2022/09/25 04:42:42;;;;;;;53.40;28.80;;;;;;;11.72;100.00;100776.56;7392112;19;20384;-53
2022/09/25 04:45:12;;;;;;;55.07;27.80;;;;;;;11.73;100.00;100767.97;7386182;19;20413;-51
2022/09/25 04:47:44;;;;;;;54.37;27.80;;;;;;;11.83;100.00;100769.19;7391759;19;20405;-53
2022/09/25 04:50:13;;;;;;;59.13;28.60;;;;;;;11.79;100.00;100771.63;7387896;19;21045;-54
2022/09/25 04:52:43;;;;;;;49.63;27.43;;;;;;;11.78;100.00;100754.34;7399466;19;20411;-52
2022/09/25 04:55:12;;;;;;;56.60;27.73;;;;;;;11.81;100.00;100759.63;7394079;19;20919;-55
2022/09/25 04:57:41;;;;;;;57.73;29.03;;;;;;;11.80;100.00;100758.72;7398699;19;20428;-54
2022/09/25 05:00:29;;;;;;;54.93;28.70;;;;;;;11.56;100.00;100761.28;7393225;19;20411;-50
2022/09/25 05:03:04;;;;;;;60.40;28.17;;;;;;;11.57;100.00;100763.94;7399154;19;20385;-52
2022/09/25 05:05:34;;;;;;;60.07;30.20;;;;;;;11.53;100.00;100763.78;7392730;19;20411;-56
2022/09/25 05:08:04;;;;;;;49.83;28.43;;;;;;;11.47;100.00;100764.41;7398139;19;20401;-57
2022/09/25 05:10:35;;;;;;;53.77;27.43;;;;;;;11.53;100.00;100763.78;7392296;19;20414;-50
2022/09/25 05:13:07;;;;;;;59.80;28.90;;;;;;;11.60;100.00;100768.34;7399158;19;20386;-50
2022/09/25 05:15:37;;;;;;;57.53;31.87;;;;;;;11.95;100.00;100767.88;7390966;19;21396;-48
2022/09/25 05:18:15;;;;;;;197.50;113.80;;;;;;;12.32;100.00;100773.50;7397439;19;20391;-54
2022/09/25 05:20:45;;;;;;;106.57;54.80;;;;;;;12.50;100.00;100762.91;7392897;19;20416;-55
2022/09/25 05:23:15;;;;;;;118.73;58.53;;;;;;;12.52;100.00;100759.53;7401684;19;20412;-51
2022/09/25 05:25:44;;;;;;;138.83;79.93;;;;;;;12.61;100.00;100765.88;7392487;19;20415;-57
2022/09/25 05:28:14;;;;;;;69.83;39.33;;;;;;;12.40;100.00;100757.44;7397261;19;20395;-52
2022/09/25 05:30:43;;;;;;;59.97;32.20;;;;;;;12.09;100.00;100758.94;7392378;19;20403;-54
2022/09/25 05:33:15;;;;;;;70.17;36.97;;;;;;;12.14;100.00;100770.34;7398294;19;20383;-56
2022/09/25 05:35:44;;;;;;;62.60;32.57;;;;;;;12.14;100.00;100769.44;7391261;19;20423;-55
2022/09/25 05:38:14;;;;;;;60.17;29.63;;;;;;;11.96;100.00;100767.94;7396948;19;20410;-54
2022/09/25 05:40:43;;;;;;;57.80;30.70;;;;;;;11.78;100.00;100762.09;7391627;19;20766;-53
2022/09/25 05:43:13;;;;;;;107.73;53.90;;;;;;;11.75;100.00;100758.56;7397817;19;21058;-54
2022/09/25 05:45:43;;;;;;;59.13;30.63;;;;;;;11.92;100.00;100760.91;7391516;19;20399;-54
2022/09/25 05:48:16;;;;;;;66.87;31.70;;;;;;;11.86;100.00;100752.91;7396574;19;20474;-54
2022/09/25 05:50:45;;;;;;;67.77;33.10;;;;;;;11.86;100.00;100758.09;7391535;19;20419;-51
2022/09/25 05:53:15;;;;;;;64.47;31.50;;;;;;;11.81;100.00;100751.88;7397625;19;20411;-52
2022/09/25 05:55:51;;;;;;;60.17;29.77;;;;;;;11.88;100.00;100756.44;7390863;19;20521;-53
2022/09/25 05:58:20;;;;;;;58.70;31.23;;;;;;;11.82;100.00;100757.09;7396566;19;20944;-51
2022/09/25 06:00:50;;;;;;;60.90;32.60;;;;;;;11.86;100.00;100758.09;7390388;19;20969;-54
2022/09/25 06:03:23;;;;;;;58.50;28.60;;;;;;;11.89;100.00;100750.44;7397405;19;20385;-53
2022/09/25 06:05:52;;;;;;;56.47;29.93;;;;;;;11.79;100.00;100751.78;7390068;19;20779;-53
2022/09/25 06:08:22;;;;;;;56.00;30.23;;;;;;;11.83;100.00;100745.03;7396124;19;20393;-53
2022/09/25 06:10:55;;;;;;;64.87;31.53;;;;;;;11.96;100.00;100754.13;7390711;19;20421;-50
2022/09/25 06:13:25;;;;;;;61.20;30.50;;;;;;;11.79;100.00;100741.47;7397301;19;20379;-56
2022/09/25 06:15:55;;;;;;;60.00;29.47;;;;;;;11.83;100.00;100745.03;7389588;19;20441;-54
2022/09/25 06:18:28;;;;;;;60.13;30.33;;;;;;;11.77;100.00;100756.03;7395754;19;20398;-52
2022/09/25 06:21:01;;;;;;;60.40;30.87;;;;;;;11.75;100.00;100739.59;7390730;19;20788;-51
2022/09/25 06:23:31;;;;;;;57.10;30.13;;;;;;;11.79;100.00;100744.03;7398730;19;20418;-55
2022/09/25 06:26:05;;;;;;;56.20;29.87;;;;;;;11.79;100.00;100744.03;7390081;19;20446;-52
2022/09/25 06:28:35;;;;;;;49.83;28.17;;;;;;;11.77;100.00;100744.81;7395382;19;20441;-55
2022/09/25 06:31:05;;;;;;;56.40;29.70;;;;;;;11.94;100.00;100751.47;7390071;19;20423;-58
2022/09/25 06:33:37;;;;;;;57.70;29.77;;;;;;;11.90;100.00;100752.22;7396458;19;20927;-57
2022/09/25 06:36:07;;;;;;;62.03;32.80;;;;;;;12.07;100.00;100749.38;7390013;19;20778;-51
2022/09/25 06:38:37;;;;;;;55.53;32.00;;;;;;;12.15;100.00;100750.50;7394463;19;20411;-56
2022/09/25 06:41:06;;;;;;;64.53;33.77;;;;;;;12.43;100.00;100751.47;7390095;19;20455;-54
2022/09/25 06:43:36;;;;;;;82.60;43.50;;;;;;;12.58;100.00;100752.81;7395744;19;20392;-56
2022/09/25 06:46:06;;;;;;;174.00;98.03;;;;;;;12.72;100.00;100735.16;7389269;19;20771;-58
2022/09/25 06:48:38;;;;;;;158.93;85.97;;;;;;;12.77;100.00;100736.19;7394359;19;20409;-56
2022/09/25 06:51:07;;;;;;;105.13;57.43;;;;;;;12.90;100.00;100728.00;7389395;19;20773;-52
2022/09/25 06:53:37;;;;;;;68.40;37.03;;;;;;;12.88;100.00;100736.53;7395369;19;20405;-52
2022/09/25 06:56:06;;;;;;;48.93;27.63;;;;;;;12.71;100.00;100736.84;7388935;19;21104;-54
2022/09/25 06:58:36;;;;;;;54.33;30.50;;;;;;;12.75;100.00;100743.91;7394211;19;20424;-57
2022/09/25 07:01:09;;;;;;;43.27;24.30;;;;;;;12.76;100.00;100743.06;7388829;19;20784;-53
2022/09/25 07:03:44;;;;;;;34.47;19.33;;;;;;;12.80;100.00;100742.34;7395270;19;20384;-52
2022/09/25 07:06:16;;;;;;;33.33;20.93;;;;;;;12.51;100.00;100746.56;7389111;19;20490;-49
2022/09/25 07:08:46;;;;;;;34.50;20.23;;;;;;;12.40;100.00;100744.50;7393914;19;20427;-55
2022/09/25 07:11:17;;;;;;;29.30;17.67;;;;;;;12.25;100.00;100741.41;7389542;19;20436;-55
2022/09/25 07:13:53;;;;;;;30.90;17.90;;;;;;;12.20;100.00;100750.69;7394743;19;20375;-57
2022/09/25 07:16:24;;;;;;;19.63;12.50;;;;;;;11.98;100.00;100758.53;7386968;19;20450;-57
2022/09/25 07:18:59;;;;;;;23.43;14.40;;;;;;;11.96;100.00;100747.25;7395431;19;20423;-51
2022/09/25 07:21:30;;;;;;;19.47;12.73;;;;;;;11.87;100.00;100745.22;7389165;19;20417;-51
2022/09/25 07:24:00;;;;;;;16.90;10.47;;;;;;;12.08;100.00;100748.53;7397347;19;20403;-51
2022/09/25 07:26:33;;;;;;;19.30;11.93;;;;;;;12.18;100.00;100744.56;7390335;19;20417;-57
2022/09/25 07:29:05;;;;;;;15.40;10.20;;;;;;;12.21;100.00;100745.53;7397350;19;20462;-56
2022/09/25 07:31:36;;;;;;;15.00;9.30;;;;;;;11.99;100.00;100744.78;7388583;19;20422;-55
2022/09/25 07:34:11;;;;;;;11.70;8.13;;;;;;;11.95;100.00;100739.44;7396772;19;20398;-57
2022/09/25 07:36:41;;;;;;;11.13;7.30;;;;;;;12.14;100.00;100746.16;7388221;19;20429;-54
2022/09/25 07:39:11;;;;;;;13.30;8.67;;;;;;;12.00;100.00;100738.78;7392227;19;20438;-56
2022/09/25 07:41:47;;;;;;;9.53;6.77;;;;;;;11.99;100.00;100743.88;7387807;19;20932;-56
2022/09/25 07:44:16;;;;;;;13.03;8.60;;;;;;;11.89;100.00;100747.84;7393395;19;20410;-55
2022/09/25 07:46:59;;;;;;;11.63;7.17;;;;;;;11.88;100.00;100748.66;7387529;19;20429;-55
2022/09/25 07:49:32;;;;;;;12.50;7.97;;;;;;;11.88;100.00;100751.25;7391894;19;20442;-53
2022/09/25 07:52:05;;;;;;;10.10;6.53;;;;;;;11.80;100.00;100758.72;7387234;19;20438;-55
2022/09/25 07:54:38;;;;;;;10.77;7.57;;;;;;;11.75;100.00;100745.63;7391675;19;20954;-52
2022/09/25 07:57:08;;;;;;;13.20;7.93;;;;;;;11.75;100.00;100750.81;7386869;19;20438;-53
2022/09/25 07:59:37;;;;;;;14.03;8.60;;;;;;;11.70;100.00;100754.91;7391591;19;21348;-57
2022/09/25 08:02:06;;;;;;;13.80;8.30;;;;;;;11.79;100.00;100750.94;7386397;19;20422;-53
2022/09/25 08:04:38;;;;;;;13.03;9.03;;;;;;;11.82;100.00;100756.19;7393179;19;20393;-53
2022/09/25 08:07:08;;;;;;;117.77;63.90;;;;;;;12.06;100.00;100761.44;7390732;19;20453;-51
2022/09/25 08:09:39;;;;;;;18.80;12.03;;;;;;;12.23;100.00;100751.69;7391053;19;20787;-54
2022/09/25 08:12:08;;;;;;;26.63;17.90;;;;;;;12.23;100.00;100759.44;7386920;19;20420;-57
2022/09/25 08:14:37;;;;;;;46.60;24.67;;;;;;;12.55;100.00;100745.81;7392937;19;20390;-56
2022/09/25 08:17:07;;;;;;;27.07;17.00;;;;;;;12.56;100.00;100748.47;7383121;19;20454;-57
2022/09/25 08:19:39;;;;;;;43.20;27.80;;;;;;;12.46;100.00;100748.13;7394854;19;20447;-50
2022/09/25 08:22:08;;;;;;;37.23;22.80;;;;;;;12.54;100.00;100733.72;7383132;19;20435;-54
2022/09/25 08:24:37;;;;;;;20.80;13.57;;;;;;;12.27;100.00;100738.00;7396156;19;20427;-59
2022/09/25 08:27:07;;;;;;;20.83;13.30;;;;;;;12.44;100.00;100748.06;7391829;19;20433;-56
2022/09/25 08:29:37;;;;;;;23.77;16.30;;;;;;;12.52;100.00;100746.59;7397379;19;20445;-55
2022/09/25 08:32:07;;;;;;;22.80;15.30;;;;;;;12.43;100.00;100744.59;7397039;19;20438;-57
2022/09/25 08:34:40;;;;;;;16.33;11.70;;;;;;;12.31;100.00;100751.06;7400248;19;20387;-51
2022/09/25 08:37:10;;;;;;;18.30;10.80;;;;;;;12.06;100.00;100750.19;7393153;19;20435;-56
2022/09/25 08:39:40;;;;;;;20.63;12.03;;;;;;;11.85;100.00;100748.56;7396717;19;20412;-57
2022/09/25 08:42:17;;;;;;;51.03;27.50;;;;;;;11.75;100.00;100753.41;7393295;19;20953;-58
2022/09/25 08:49:00;;;;;;;24.97;14.80;;;;;;;11.72;100.00;100758.47;7399767;19;20387;-52
2022/09/25 08:50:36;;;;;;;18.13;11.90;;;;;;;11.68;100.00;100766.91;7391492;19;20831;-52
2022/09/25 08:53:08;;;;;;;31.27;16.70;;;;;;;11.68;100.00;100769.50;7396238;19;20699;-52
2022/09/25 08:58:26;;;;;;;18.07;11.83;;;;;;;11.72;100.00;100776.56;7397417;19;20414;-58
2022/09/25 09:00:56;;;;;;;17.73;11.80;;;;;;;11.62;100.00;100777.03;7391944;19;20408;-51
2022/09/25 09:03:29;;;;;;;18.07;12.57;;;;;;;11.63;100.00;100780.50;7399251;19;20383;-54
2022/09/25 09:06:04;;;;;;;29.03;14.30;;;;;;;11.60;100.00;100791.59;7393216;19;20432;-55
2022/09/25 09:08:36;;;;;;;21.77;12.00;;;;;;;11.55;100.00;100788.84;7397733;19;20418;-55
2022/09/25 09:11:10;;;;;;;16.27;11.63;;;;;;;11.52;100.00;100790.41;7393364;19;20413;-55
2022/09/25 09:13:46;;;;;;;16.13;11.07;;;;;;;11.44;100.00;100785.81;7398719;19;20378;-49
2022/09/25 09:16:21;;;;;;;17.37;11.37;;;;;;;11.43;100.00;100789.25;7392043;19;20413;-56
2022/09/25 09:18:50;;;;;;;16.77;10.87;;;;;;;11.41;100.00;100790.88;7396099;19;20444;-49
2022/09/25 09:21:29;;;;;;;18.77;12.43;;;;;;;11.81;100.00;100790.63;7394547;19;20450;-60
2022/09/25 09:24:08;;;;;;;33.47;20.43;;;;;;;12.09;100.00;100786.50;7398487;19;20751;-54
2022/09/25 09:26:49;;;;;;;26.40;16.00;;;;;;;12.14;100.00;100780.69;7392007;19;20422;-54
2022/09/25 09:29:26;;;;;;;72.87;42.13;;;;;;;12.36;100.00;100780.56;7396376;19;20416;-52
2022/09/25 09:32:03;;;;;;;15.60;12.30;;;;;;;12.33;100.00;100770.09;7389824;19;20438;-54
2022/09/25 09:34:43;;;;;;;50.60;30.97;;;;;;;12.04;100.00;100762.19;7398140;19;20386;-54
2022/09/25 09:37:40;;;;;;;45.77;29.13;;;;;;;12.42;100.00;100760.06;7393287;19;20481;-55
2022/09/25 09:40:27;;;;;;;19.10;13.40;;;;;;;12.20;100.00;100759.31;7392772;19;20426;-57
2022/09/25 09:43:03;;;;;;;27.20;15.97;;;;;;;12.23;100.00;100759.44;7396403;19;20388;-59
2022/09/25 09:45:40;;;;;;;32.57;21.10;;;;;;;12.48;100.00;100770.63;7391509;19;20421;-57
2022/09/25 09:48:14;;;;;;;25.40;18.60;;;;;;;12.73;100.00;100771.47;7396173;19;20392;-56
2022/09/25 09:50:48;;;;;;;16.27;13.10;;;;;;;12.82;100.00;100781.25;7391172;19;20402;-54
2022/09/25 09:53:30;;;;;;;17.40;13.63;;;;;;;12.93;100.00;100773.81;7397721;19;20777;-54
2022/09/25 09:56:03;;;;;;;20.37;14.13;;;;;;;13.03;100.00;100775.84;7390719;19;20403;-59
2022/09/25 09:58:44;;;;;;;16.67;11.23;;;;;;;12.55;100.00;100771.72;7395786;19;20441;-54
2022/09/25 10:01:15;;;;;;;15.93;11.27;;;;;;;12.29;100.00;100769.09;7391074;19;20439;-56
2022/09/25 10:04:07;;;;;;;16.13;11.80;;;;;;;12.04;100.00;100772.53;7397167;19;20890;-57
2022/09/25 10:06:39;;;;;;;21.00;12.47;;;;;;;12.02;100.00;100770.72;7390771;19;20438;-53
2022/09/25 10:09:16;;;;;;;19.40;12.00;;;;;;;11.99;100.00;100773.22;7395125;19;20440;-57
2022/09/25 10:11:47;;;;;;;19.20;12.40;;;;;;;11.95;100.00;100773.06;7391198;19;20407;-56
2022/09/25 10:14:20;;;;;;;14.30;10.27;;;;;;;11.90;100.00;100767.72;7395279;19;20445;-54
2022/09/25 10:16:51;;;;;;;21.47;12.03;;;;;;;12.05;100.00;100772.56;7389169;19;20433;-55
2022/09/25 10:19:22;;;;;;;18.83;11.40;;;;;;;12.09;100.00;100770.97;7393298;19;20419;-55
2022/09/25 10:21:55;;;;;;;17.27;12.00;;;;;;;11.95;100.00;100768.75;7389905;19;20745;-51
2022/09/25 10:24:51;;;;;;;14.97;11.00;;;;;;;11.93;100.00;100770.41;7393359;19;20443;-59
2022/09/25 10:27:30;;;;;;;20.10;12.10;;;;;;;12.06;100.00;100769.19;7395827;19;20417;-52
2022/09/25 10:30:14;;;;;;;14.60;10.50;;;;;;;12.11;100.00;100770.22;7388134;19;20415;-57
2022/09/25 10:32:46;;;;;;;17.13;10.50;;;;;;;12.01;100.00;100774.13;7398032;19;20379;-53
2022/09/25 10:35:17;;;;;;;18.60;10.80;;;;;;;11.83;100.00;100763.13;7390128;19;20415;-57
2022/09/25 10:37:49;;;;;;;14.60;9.80;;;;;;;11.83;100.00;100765.72;7395158;19;20380;-57
2022/09/25 10:40:30;;;;;;;17.10;9.83;;;;;;;12.02;100.00;100767.28;7387655;19;20400;-58
2022/09/25 10:43:19;;;;;;;13.77;9.83;;;;;;;11.91;100.00;100766.91;7395462;19;20393;-55
2022/09/25 10:45:51;;;;;;;51.03;24.63;;;;;;;12.02;100.00;100770.72;7389541;19;20414;-57
2022/09/25 10:51:15;;;;;;;21.70;12.17;;;;;;;11.71;100.00;100764.47;7388702;19;20444;-57
2022/09/25 10:53:45;;;;;;;16.03;10.10;;;;;;;11.83;100.00;100763.13;7395238;19;20390;-55
2022/09/25 10:56:23;;;;;;;22.47;12.97;;;;;;;11.74;100.00;100764.56;7389630;19;20433;-53
2022/09/25 10:58:56;;;;;;;16.70;11.43;;;;;;;11.67;100.00;100761.69;7393734;19;20780;-52
2022/09/25 11:01:34;;;;;;;16.63;10.90;;;;;;;11.64;100.00;100762.44;7389555;19;20433;-51
2022/09/25 11:04:08;;;;;;;17.30;11.03;;;;;;;11.71;100.00;100763.56;7394906;19;20409;-52
2022/09/25 11:06:38;;;;;;;21.63;10.80;;;;;;;11.73;100.00;100772.25;7389184;19;20405;-52
2022/09/25 11:09:10;;;;;;;18.90;11.53;;;;;;;11.71;100.00;100766.16;7393240;19;20438;-53
2022/09/25 11:11:42;;;;;;;21.80;11.90;;;;;;;11.60;100.00;100769.22;7388725;19;20440;-55
2022/09/25 11:14:21;;;;;;;27.60;12.97;;;;;;;11.83;100.00;100773.47;7394131;19;20387;-56
2022/09/25 11:16:56;;;;;;;15.13;11.67;;;;;;;11.91;100.00;100766.00;7388941;19;20432;-55
2022/09/25 11:19:30;;;;;;;26.00;12.53;;;;;;;11.91;100.00;100764.31;7392585;19;20425;-57
2022/09/25 11:22:18;;;;;;;20.20;12.17;;;;;;;11.87;100.00;100776.25;7390733;19;20773;-51
2022/09/25 11:24:55;;;;;;;18.97;12.30;;;;;;;11.87;100.00;100770.19;7395888;19;20744;-58
2022/09/25 11:27:37;;;;;;;24.27;13.80;;;;;;;11.90;100.00;100775.47;7393739;19;20421;-58
2022/09/25 11:30:08;;;;;;;20.80;13.53;;;;;;;11.83;100.00;100778.63;7387208;19;20529;-55
2022/09/25 11:32:44;;;;;;;44.03;19.33;;;;;;;11.77;100.00;100778.41;7393675;19;20389;-53
2022/09/25 11:35:41;;;;;;;17.03;12.03;;;;;;;11.74;100.00;100780.06;7387366;19;20426;-52
2022/09/25 11:41:10;;;;;;;33.33;15.73;;;;;;;11.78;100.00;100780.19;7393004;19;20413;-50
2022/09/25 11:41:14;;;;;;;20.47;12.77;;;;;;;11.77;100.00;100779.31;7387973;19;20420;-50